sensor_id;sensor_type;location;lat;lon;timestamp;pressure;altitude;pressure_sealevel;temperature;humidity
56074;BME280;41950;55.840;37.442;2023-02-23T00:01:56;99453.59;;;-14.95;73.52
56074;BME280;41950;55.840;37.442;2023-02-23T00:04:23;99601.03;;;-14.15;73.73
56074;BME280;41950;55.840;37.442;2023-02-23T00:06:50;99567.72;;;-14.37;73.79
56074;BME280;41950;55.840;37.442;2023-02-23T00:09:17;99612.22;;;-14.10;73.67
56074;BME280;41950;55.840;37.442;2023-02-23T00:11:53;99614.25;;;-14.16;73.79
56074;BME280;41950;55.840;37.442;2023-02-23T00:14:20;99347.72;;;-15.76;73.86
56074;BME280;41950;55.840;37.442;2023-02-23T00:16:47;99404.66;;;-15.37;73.89
56074;BME280;41950;55.840;37.442;2023-02-23T00:19:13;99398.94;;;-15.36;74.13
56074;BME280;41950;55.840;37.442;2023-02-23T00:21:40;99616.34;;;-14.10;74.00
56074;BME280;41950;55.840;37.442;2023-02-23T00:24:11;99305.25;;;-15.99;73.80
56074;BME280;41950;55.840;37.442;2023-02-23T00:26:41;99322.13;;;-15.85;73.94
56074;BME280;41950;55.840;37.442;2023-02-23T00:29:12;99529.38;;;-14.71;73.77
56074;BME280;41950;55.840;37.442;2023-02-23T00:31:40;99424.97;;;-15.32;73.75
56074;BME280;41950;55.840;37.442;2023-02-23T00:34:09;99431.16;;;-15.37;73.66
56074;BME280;41950;55.840;37.442;2023-02-23T00:36:36;99313.19;;;-16.03;73.75
56074;BME280;41950;55.840;37.442;2023-02-23T00:39:09;99247.03;;;-16.53;73.83
56074;BME280;41950;55.840;37.442;2023-02-23T00:41:48;99391.69;;;-15.65;73.94
56074;BME280;41950;55.840;37.442;2023-02-23T00:44:14;99537.97;;;-14.78;74.30
56074;BME280;41950;55.840;37.442;2023-02-23T00:46:41;99502.75;;;-14.92;74.38
56074;BME280;41950;55.840;37.442;2023-02-23T00:49:09;99487.88;;;-15.13;74.09
56074;BME280;41950;55.840;37.442;2023-02-23T00:51:35;99414.69;;;-15.57;74.00
56074;BME280;41950;55.840;37.442;2023-02-23T00:54:02;99628.00;;;-14.31;74.28
56074;BME280;41950;55.840;37.442;2023-02-23T00:56:28;99543.56;;;-14.80;74.27
56074;BME280;41950;55.840;37.442;2023-02-23T00:58:54;99631.59;;;-14.27;74.26
56074;BME280;41950;55.840;37.442;2023-02-23T01:01:21;99627.66;;;-14.36;74.15
56074;BME280;41950;55.840;37.442;2023-02-23T01:03:47;99622.41;;;-14.39;74.18
56074;BME280;41950;55.840;37.442;2023-02-23T01:06:17;99606.66;;;-14.49;74.33
56074;BME280;41950;55.840;37.442;2023-02-23T01:08:45;99630.13;;;-14.36;74.15
56074;BME280;41950;55.840;37.442;2023-02-23T01:11:19;99578.06;;;-14.75;74.18
56074;BME280;41950;55.840;37.442;2023-02-23T01:13:46;99652.09;;;-14.42;74.46
56074;BME280;41950;55.840;37.442;2023-02-23T01:16:32;99657.84;;;-14.43;74.56
56074;BME280;41950;55.840;37.442;2023-02-23T01:19:02;99651.53;;;-14.49;74.63
56074;BME280;41950;55.840;37.442;2023-02-23T01:21:35;99526.47;;;-15.28;74.81
56074;BME280;41950;55.840;37.442;2023-02-23T01:24:01;99660.50;;;-14.51;74.89
56074;BME280;41950;55.840;37.442;2023-02-23T01:26:28;99645.28;;;-14.54;75.17
56074;BME280;41950;55.840;37.442;2023-02-23T01:28:57;99650.00;;;-14.57;75.30
56074;BME280;41950;55.840;37.442;2023-02-23T01:31:24;99645.16;;;-14.56;75.39
56074;BME280;41950;55.840;37.442;2023-02-23T01:33:57;99647.00;;;-14.53;75.50
56074;BME280;41950;55.840;37.442;2023-02-23T01:36:25;99630.09;;;-14.57;75.40
56074;BME280;41950;55.840;37.442;2023-02-23T01:38:53;99627.59;;;-14.57;75.30
56074;BME280;41950;55.840;37.442;2023-02-23T01:41:23;99597.25;;;-14.74;75.35
56074;BME280;41950;55.840;37.442;2023-02-23T01:44:04;99636.81;;;-14.46;75.41
56074;BME280;41950;55.840;37.442;2023-02-23T01:46:35;99635.19;;;-14.46;75.20
56074;BME280;41950;55.840;37.442;2023-02-23T01:49:03;99639.41;;;-14.45;75.15
56074;BME280;41950;55.840;37.442;2023-02-23T01:51:33;99656.88;;;-14.45;75.40
56074;BME280;41950;55.840;37.442;2023-02-23T01:54:15;99647.41;;;-14.49;75.26
56074;BME280;41950;55.840;37.442;2023-02-23T01:56:44;99612.44;;;-14.71;75.21
56074;BME280;41950;55.840;37.442;2023-02-23T01:59:12;99645.03;;;-14.47;75.19
56074;BME280;41950;55.840;37.442;2023-02-23T02:01:40;99641.28;;;-14.52;75.13
56074;BME280;41950;55.840;37.442;2023-02-23T02:04:07;99652.88;;;-14.43;75.14
56074;BME280;41950;55.840;37.442;2023-02-23T02:06:35;99659.81;;;-14.39;75.18
56074;BME280;41950;55.840;37.442;2023-02-23T02:09:06;99661.78;;;-14.34;75.16
56074;BME280;41950;55.840;37.442;2023-02-23T02:11:35;99667.75;;;-14.32;75.24
56074;BME280;41950;55.840;37.442;2023-02-23T02:14:05;99659.94;;;-14.37;75.13
56074;BME280;41950;55.840;37.442;2023-02-23T02:19:53;99678.84;;;-14.19;75.09
56074;BME280;41950;55.840;37.442;2023-02-23T02:39:56;99693.69;;;-14.30;75.27
56074;BME280;41950;55.840;37.442;2023-02-23T02:45:43;99695.13;;;-14.44;75.44
56074;BME280;41950;55.840;37.442;2023-02-23T02:51:23;99703.56;;;-14.52;75.86
56074;BME280;41950;55.840;37.442;2023-02-23T02:54:09;99659.41;;;-14.75;75.76
56074;BME280;41950;55.840;37.442;2023-02-23T02:56:41;99699.84;;;-14.57;75.77
56074;BME280;41950;55.840;37.442;2023-02-23T02:59:13;99677.06;;;-14.72;75.55
56074;BME280;41950;55.840;37.442;2023-02-23T03:01:58;99696.00;;;-14.64;75.70
56074;BME280;41950;55.840;37.442;2023-02-23T03:04:42;99697.50;;;-14.66;75.54
56074;BME280;41950;55.840;37.442;2023-02-23T03:07:48;99695.75;;;-14.67;75.66
56074;BME280;41950;55.840;37.442;2023-02-23T03:10:54;99689.78;;;-14.69;75.69
56074;BME280;41950;55.840;37.442;2023-02-23T03:13:59;99694.63;;;-14.71;75.96
56074;BME280;41950;55.840;37.442;2023-02-23T03:19:55;99668.59;;;-14.94;75.75
56074;BME280;41950;55.840;37.442;2023-02-23T03:22:59;99699.47;;;-14.82;75.92
56074;BME280;41950;55.840;37.442;2023-02-23T03:29:06;99711.56;;;-14.87;75.84
56074;BME280;41950;55.840;37.442;2023-02-23T03:36:06;99711.56;;;-14.97;76.31
56074;BME280;41950;55.840;37.442;2023-02-23T03:38:38;99708.81;;;-15.00;76.48
56074;BME280;41950;55.840;37.442;2023-02-23T03:41:27;99715.53;;;-14.99;76.32
56074;BME280;41950;55.840;37.442;2023-02-23T03:44:36;99683.50;;;-15.25;76.24
56074;BME280;41950;55.840;37.442;2023-02-23T03:47:23;99676.16;;;-15.34;76.30
56074;BME280;41950;55.840;37.442;2023-02-23T03:50:14;99708.78;;;-15.20;76.43
56074;BME280;41950;55.840;37.442;2023-02-23T03:53:00;99728.44;;;-15.13;76.59
56074;BME280;41950;55.840;37.442;2023-02-23T03:55:53;99719.72;;;-15.18;76.63
56074;BME280;41950;55.840;37.442;2023-02-23T03:58:46;99675.88;;;-15.47;76.65
56074;BME280;41950;55.840;37.442;2023-02-23T04:01:32;99732.28;;;-15.17;76.65
56074;BME280;41950;55.840;37.442;2023-02-23T04:04:19;99734.16;;;-15.24;76.65
56074;BME280;41950;55.840;37.442;2023-02-23T04:07:06;99654.19;;;-15.68;76.66
56074;BME280;41950;55.840;37.442;2023-02-23T04:09:52;99672.75;;;-15.54;76.77
56074;BME280;41950;55.840;37.442;2023-02-23T04:15:55;99680.47;;;-15.51;76.45
56074;BME280;41950;55.840;37.442;2023-02-23T04:18:22;99742.38;;;-15.25;76.65
56074;BME280;41950;55.840;37.442;2023-02-23T04:20:49;99665.84;;;-15.77;76.68
56074;BME280;41950;55.840;37.442;2023-02-23T04:23:15;99728.38;;;-15.44;76.60
56074;BME280;41950;55.840;37.442;2023-02-23T04:25:41;99667.97;;;-15.82;76.68
56074;BME280;41950;55.840;37.442;2023-02-23T04:28:07;99753.75;;;-15.38;77.03
56074;BME280;41950;55.840;37.442;2023-02-23T04:30:33;99727.50;;;-15.44;76.78
56074;BME280;41950;55.840;37.442;2023-02-23T04:32:58;99753.00;;;-15.37;76.74
56074;BME280;41950;55.840;37.442;2023-02-23T04:35:26;99748.16;;;-15.35;76.58
56074;BME280;41950;55.840;37.442;2023-02-23T04:37:54;99721.84;;;-15.62;76.54
56074;BME280;41950;55.840;37.442;2023-02-23T04:40:22;99666.91;;;-15.94;76.87
56074;BME280;41950;55.840;37.442;2023-02-23T04:42:48;99755.72;;;-15.44;76.77
56074;BME280;41950;55.840;37.442;2023-02-23T04:45:13;99755.47;;;-15.47;76.96
56074;BME280;41950;55.840;37.442;2023-02-23T04:47:39;99683.50;;;-15.84;76.56
56074;BME280;41950;55.840;37.442;2023-02-23T04:50:05;99760.09;;;-15.41;76.42
56074;BME280;41950;55.840;37.442;2023-02-23T04:52:31;99759.09;;;-15.43;76.37
56074;BME280;41950;55.840;37.442;2023-02-23T04:54:57;99720.53;;;-15.58;76.09
56074;BME280;41950;55.840;37.442;2023-02-23T04:57:22;99642.41;;;-16.00;76.22
56074;BME280;41950;55.840;37.442;2023-02-23T04:59:48;99637.19;;;-16.03;76.07
56074;BME280;41950;55.840;37.442;2023-02-23T05:02:14;99757.38;;;-15.34;76.31
56074;BME280;41950;55.840;37.442;2023-02-23T05:04:39;99677.56;;;-15.76;75.88
56074;BME280;41950;55.840;37.442;2023-02-23T05:07:05;99622.63;;;-16.08;75.84
56074;BME280;41950;55.840;37.442;2023-02-23T05:09:31;99760.03;;;-15.33;75.68
56074;BME280;41950;55.840;37.442;2023-02-23T05:11:57;99696.47;;;-15.68;75.81
56074;BME280;41950;55.840;37.442;2023-02-23T05:14:23;99713.28;;;-15.55;75.39
56074;BME280;41950;55.840;37.442;2023-02-23T05:16:49;99780.44;;;-15.26;75.35
56074;BME280;41950;55.840;37.442;2023-02-23T05:19:15;99701.44;;;-15.68;75.51
56074;BME280;41950;55.840;37.442;2023-02-23T05:21:41;99747.66;;;-15.41;75.26
56074;BME280;41950;55.840;37.442;2023-02-23T05:24:07;99782.94;;;-15.16;75.28
56074;BME280;41950;55.840;37.442;2023-02-23T05:26:33;99776.59;;;-15.23;75.14
56074;BME280;41950;55.840;37.442;2023-02-23T05:28:59;99759.28;;;-15.32;74.76
56074;BME280;41950;55.840;37.442;2023-02-23T05:31:26;99733.34;;;-15.44;74.80
56074;BME280;41950;55.840;37.442;2023-02-23T05:33:52;99779.47;;;-15.18;74.70
56074;BME280;41950;55.840;37.442;2023-02-23T05:36:19;99734.09;;;-15.45;74.71
56074;BME280;41950;55.840;37.442;2023-02-23T05:38:45;99793.53;;;-15.19;74.85
56074;BME280;41950;55.840;37.442;2023-02-23T05:41:13;99781.22;;;-15.17;74.44
56074;BME280;41950;55.840;37.442;2023-02-23T05:43:40;99755.50;;;-15.37;73.98
56074;BME280;41950;55.840;37.442;2023-02-23T05:46:08;99789.53;;;-15.17;74.20
56074;BME280;41950;55.840;37.442;2023-02-23T05:48:36;99725.63;;;-15.47;74.12
56074;BME280;41950;55.840;37.442;2023-02-23T05:51:07;99786.94;;;-15.08;73.65
56074;BME280;41950;55.840;37.442;2023-02-23T05:53:33;99672.72;;;-15.65;73.94
56074;BME280;41950;55.840;37.442;2023-02-23T05:56:00;99794.59;;;-14.96;73.12
56074;BME280;41950;55.840;37.442;2023-02-23T05:58:26;99703.13;;;-15.58;73.01
56074;BME280;41950;55.840;37.442;2023-02-23T06:00:52;99802.00;;;-15.17;73.21
56074;BME280;41950;55.840;37.442;2023-02-23T06:03:18;99766.00;;;-15.31;73.29
56074;BME280;41950;55.840;37.442;2023-02-23T06:05:54;99708.97;;;-15.58;73.35
56074;BME280;41950;55.840;37.442;2023-02-23T06:08:22;99798.59;;;-14.88;73.36
56074;BME280;41950;55.840;37.442;2023-02-23T06:10:47;99749.09;;;-15.14;73.13
56074;BME280;41950;55.840;37.442;2023-02-23T06:13:13;99779.28;;;-14.91;72.83
56074;BME280;41950;55.840;37.442;2023-02-23T06:15:40;99808.47;;;-14.70;72.51
56074;BME280;41950;55.840;37.442;2023-02-23T06:18:05;99768.34;;;-14.83;72.43
56074;BME280;41950;55.840;37.442;2023-02-23T06:20:32;99805.09;;;-14.60;71.90
56074;BME280;41950;55.840;37.442;2023-02-23T06:22:57;99804.63;;;-14.56;72.01
56074;BME280;41950;55.840;37.442;2023-02-23T06:25:23;99733.47;;;-14.93;72.05
56074;BME280;41950;55.840;37.442;2023-02-23T06:27:49;99810.59;;;-14.33;71.82
56074;BME280;41950;55.840;37.442;2023-02-23T06:30:15;99765.00;;;-14.53;71.78
56074;BME280;41950;55.840;37.442;2023-02-23T06:32:40;99717.16;;;-14.59;71.36
56074;BME280;41950;55.840;37.442;2023-02-23T06:35:07;99769.31;;;-14.10;70.98
56074;BME280;41950;55.840;37.442;2023-02-23T06:37:33;99783.00;;;-14.05;70.35
56074;BME280;41950;55.840;37.442;2023-02-23T06:39:59;99806.19;;;-13.85;70.42
56074;BME280;41950;55.840;37.442;2023-02-23T06:42:25;99785.25;;;-13.97;70.46
56074;BME280;41950;55.840;37.442;2023-02-23T06:44:51;99769.06;;;-13.92;70.53
56074;BME280;41950;55.840;37.442;2023-02-23T06:47:17;99815.41;;;-13.74;69.94
56074;BME280;41950;55.840;37.442;2023-02-23T06:49:43;99780.78;;;-13.91;69.98
56074;BME280;41950;55.840;37.442;2023-02-23T06:52:09;99818.75;;;-13.63;70.21
56074;BME280;41950;55.840;37.442;2023-02-23T06:54:38;99783.72;;;-13.65;70.27
56074;BME280;41950;55.840;37.442;2023-02-23T06:57:05;99772.09;;;-13.64;69.96
56074;BME280;41950;55.840;37.442;2023-02-23T06:59:31;99779.16;;;-13.49;69.98
56074;BME280;41950;55.840;37.442;2023-02-23T07:01:57;99824.91;;;-13.16;69.53
56074;BME280;41950;55.840;37.442;2023-02-23T07:04:22;99820.44;;;-13.10;69.92
56074;BME280;41950;55.840;37.442;2023-02-23T07:06:48;99825.72;;;-12.95;69.34
56074;BME280;41950;55.840;37.442;2023-02-23T07:09:14;99769.84;;;-13.29;69.33
56074;BME280;41950;55.840;37.442;2023-02-23T07:11:40;99798.69;;;-13.11;69.31
56074;BME280;41950;55.840;37.442;2023-02-23T07:14:09;99838.41;;;-12.82;69.57
56074;BME280;41950;55.840;37.442;2023-02-23T07:16:35;99835.19;;;-12.69;69.54
56074;BME280;41950;55.840;37.442;2023-02-23T07:19:02;99826.81;;;-12.48;69.79
56074;BME280;41950;55.840;37.442;2023-02-23T07:21:28;99814.78;;;-12.42;68.91
56074;BME280;41950;55.840;37.442;2023-02-23T07:23:56;99837.50;;;-12.39;68.69
56074;BME280;41950;55.840;37.442;2023-02-23T07:26:22;99811.59;;;-12.51;69.44
56074;BME280;41950;55.840;37.442;2023-02-23T07:28:49;99781.91;;;-12.58;69.36
56074;BME280;41950;55.840;37.442;2023-02-23T07:31:14;99800.00;;;-12.39;69.33
56074;BME280;41950;55.840;37.442;2023-02-23T07:33:40;99832.38;;;-12.07;69.06
56074;BME280;41950;55.840;37.442;2023-02-23T07:36:06;99838.25;;;-12.06;68.89
56074;BME280;41950;55.840;37.442;2023-02-23T07:38:32;99821.81;;;-12.14;69.05
56074;BME280;41950;55.840;37.442;2023-02-23T07:40:58;99823.69;;;-12.12;69.15
56074;BME280;41950;55.840;37.442;2023-02-23T07:43:24;99842.00;;;-12.01;69.16
56074;BME280;41950;55.840;37.442;2023-02-23T07:45:50;99849.41;;;-11.91;69.36
56074;BME280;41950;55.840;37.442;2023-02-23T07:48:17;99778.53;;;-12.13;69.28
56074;BME280;41950;55.840;37.442;2023-02-23T07:50:43;99836.81;;;-11.46;68.95
56074;BME280;41950;55.840;37.442;2023-02-23T07:53:09;99817.19;;;-11.51;68.45
56074;BME280;41950;55.840;37.442;2023-02-23T07:55:36;99834.81;;;-11.27;68.31
56074;BME280;41950;55.840;37.442;2023-02-23T07:58:06;99817.66;;;-11.22;67.87
56074;BME280;41950;55.840;37.442;2023-02-23T08:00:33;99782.81;;;-11.42;67.52
56074;BME280;41950;55.840;37.442;2023-02-23T08:02:59;99832.00;;;-11.08;67.13
56074;BME280;41950;55.840;37.442;2023-02-23T08:05:26;99831.44;;;-11.04;67.28
56074;BME280;41950;55.840;37.442;2023-02-23T08:07:53;99831.75;;;-10.99;66.89
56074;BME280;41950;55.840;37.442;2023-02-23T08:10:20;99820.28;;;-10.96;66.52
56074;BME280;41950;55.840;37.442;2023-02-23T08:12:46;99826.06;;;-10.85;67.02
56074;BME280;41950;55.840;37.442;2023-02-23T08:15:11;99833.34;;;-10.76;66.84
56074;BME280;41950;55.840;37.442;2023-02-23T08:17:38;99841.84;;;-10.74;66.08
56074;BME280;41950;55.840;37.442;2023-02-23T08:20:05;99830.31;;;-10.84;65.82
56074;BME280;41950;55.840;37.442;2023-02-23T08:22:31;99838.34;;;-10.76;66.21
56074;BME280;41950;55.840;37.442;2023-02-23T08:24:57;99827.19;;;-10.68;66.12
56074;BME280;41950;55.840;37.442;2023-02-23T08:27:22;99836.72;;;-10.64;65.71
56074;BME280;41950;55.840;37.442;2023-02-23T08:29:48;99825.13;;;-10.62;65.98
56074;BME280;41950;55.840;37.442;2023-02-23T08:32:18;99840.53;;;-10.44;65.56
56074;BME280;41950;55.840;37.442;2023-02-23T08:34:44;99828.56;;;-10.48;65.45
56074;BME280;41950;55.840;37.442;2023-02-23T08:37:10;99832.91;;;-10.46;65.17
56074;BME280;41950;55.840;37.442;2023-02-23T08:39:36;99808.16;;;-10.66;65.32
56074;BME280;41950;55.840;37.442;2023-02-23T08:42:03;99815.00;;;-10.64;65.70
56074;BME280;41950;55.840;37.442;2023-02-23T08:44:29;99801.16;;;-10.70;65.42
56074;BME280;41950;55.840;37.442;2023-02-23T08:46:54;99831.75;;;-10.51;65.59
56074;BME280;41950;55.840;37.442;2023-02-23T08:49:23;99819.09;;;-10.52;65.53
56074;BME280;41950;55.840;37.442;2023-02-23T08:51:48;99822.38;;;-10.28;65.49
56074;BME280;41950;55.840;37.442;2023-02-23T08:54:14;99851.13;;;-9.99;65.05
56074;BME280;41950;55.840;37.442;2023-02-23T08:56:41;99836.06;;;-9.99;64.23
56074;BME280;41950;55.840;37.442;2023-02-23T08:59:07;99802.09;;;-10.18;63.69
56074;BME280;41950;55.840;37.442;2023-02-23T09:01:33;99831.13;;;-9.97;64.21
56074;BME280;41950;55.840;37.442;2023-02-23T09:03:59;99819.81;;;-10.04;64.06
56074;BME280;41950;55.840;37.442;2023-02-23T09:06:26;99813.22;;;-10.15;63.63
56074;BME280;41950;55.840;37.442;2023-02-23T09:08:53;99845.72;;;-9.91;64.17
56074;BME280;41950;55.840;37.442;2023-02-23T09:11:20;99832.41;;;-9.90;64.10
56074;BME280;41950;55.840;37.442;2023-02-23T09:13:46;99845.00;;;-9.77;63.71
56074;BME280;41950;55.840;37.442;2023-02-23T09:16:12;99847.22;;;-9.82;63.09
56074;BME280;41950;55.840;37.442;2023-02-23T09:18:38;99806.09;;;-10.09;63.02
56074;BME280;41950;55.840;37.442;2023-02-23T09:21:06;99833.69;;;-9.84;62.89
56074;BME280;41950;55.840;37.442;2023-02-23T09:23:36;99828.69;;;-9.71;62.80
56074;BME280;41950;55.840;37.442;2023-02-23T09:26:03;99836.25;;;-9.57;62.96
56074;BME280;41950;55.840;37.442;2023-02-23T09:28:31;99833.16;;;-9.40;62.65
56074;BME280;41950;55.840;37.442;2023-02-23T09:31:04;99814.19;;;-9.35;61.74
56074;BME280;41950;55.840;37.442;2023-02-23T09:33:30;99832.66;;;-9.35;60.47
56074;BME280;41950;55.840;37.442;2023-02-23T09:35:56;99791.38;;;-9.64;60.45
56074;BME280;41950;55.840;37.442;2023-02-23T09:38:21;99817.97;;;-9.42;60.91
56074;BME280;41950;55.840;37.442;2023-02-23T09:40:50;99827.16;;;-9.16;61.19
56074;BME280;41950;55.840;37.442;2023-02-23T09:43:34;99797.94;;;-9.14;61.01
56074;BME280;41950;55.840;37.442;2023-02-23T09:49:04;99725.38;;;-9.36;60.22
56074;BME280;41950;55.840;37.442;2023-02-23T09:51:37;99790.28;;;-8.89;59.04
56074;BME280;41950;55.840;37.442;2023-02-23T09:54:06;99792.50;;;-8.93;58.96
56074;BME280;41950;55.840;37.442;2023-02-23T09:56:42;99801.97;;;-8.76;59.59
56074;BME280;41950;55.840;37.442;2023-02-23T09:59:16;99792.25;;;-8.70;59.35
56074;BME280;41950;55.840;37.442;2023-02-23T10:02:04;99771.19;;;-8.85;59.22
56074;BME280;41950;55.840;37.442;2023-02-23T10:04:51;99811.91;;;-8.50;59.78
56074;BME280;41950;55.840;37.442;2023-02-23T10:07:42;99809.09;;;-8.41;59.39
56074;BME280;41950;55.840;37.442;2023-02-23T10:16:12;99808.69;;;-8.19;58.55
56074;BME280;41950;55.840;37.442;2023-02-23T10:18:57;99804.09;;;-7.97;58.45
56074;BME280;41950;55.840;37.442;2023-02-23T10:21:38;99787.94;;;-8.00;56.84
56074;BME280;41950;55.840;37.442;2023-02-23T10:26:42;99806.81;;;-7.94;55.96
56074;BME280;41950;55.840;37.442;2023-02-23T10:29:34;99814.09;;;-7.84;55.55
56074;BME280;41950;55.840;37.442;2023-02-23T10:32:05;99809.25;;;-7.81;54.34
56074;BME280;41950;55.840;37.442;2023-02-23T10:34:32;99790.91;;;-7.93;55.02
56074;BME280;41950;55.840;37.442;2023-02-23T10:37:02;99802.47;;;-7.82;54.66
56074;BME280;41950;55.840;37.442;2023-02-23T10:39:29;99799.25;;;-7.79;54.62
56074;BME280;41950;55.840;37.442;2023-02-23T10:42:04;99790.53;;;-7.69;54.97
56074;BME280;41950;55.840;37.442;2023-02-23T10:44:31;99798.97;;;-7.54;54.85
56074;BME280;41950;55.840;37.442;2023-02-23T10:46:59;99816.50;;;-7.41;54.38
56074;BME280;41950;55.840;37.442;2023-02-23T10:49:38;99806.09;;;-7.32;54.79
56074;BME280;41950;55.840;37.442;2023-02-23T10:52:10;99795.31;;;-7.30;54.92
56074;BME280;41950;55.840;37.442;2023-02-23T10:54:45;99732.91;;;-7.49;55.08
56074;BME280;41950;55.840;37.442;2023-02-23T10:57:25;99788.69;;;-6.97;54.54
56074;BME280;41950;55.840;37.442;2023-02-23T11:02:43;99774.00;;;-6.57;54.01
56074;BME280;41950;55.840;37.442;2023-02-23T11:08:27;99784.00;;;-6.26;53.17
56074;BME280;41950;55.840;37.442;2023-02-23T11:13:33;99780.09;;;-6.03;51.80
56074;BME280;41950;55.840;37.442;2023-02-23T11:16:02;99786.13;;;-6.01;50.96
56074;BME280;41950;55.840;37.442;2023-02-23T11:18:30;99783.78;;;-5.78;51.41
56074;BME280;41950;55.840;37.442;2023-02-23T11:20:55;99748.66;;;-5.56;51.23
56074;BME280;41950;55.840;37.442;2023-02-23T11:23:27;99777.38;;;-5.01;49.21
56074;BME280;41950;55.840;37.442;2023-02-23T11:25:56;99780.56;;;-4.87;48.79
56074;BME280;41950;55.840;37.442;2023-02-23T11:28:40;99773.16;;;-4.82;47.75
56074;BME280;41950;55.840;37.442;2023-02-23T11:31:16;99787.84;;;-4.56;47.37
56074;BME280;41950;55.840;37.442;2023-02-23T11:33:44;99791.78;;;-4.43;48.16
56074;BME280;41950;55.840;37.442;2023-02-23T11:36:33;99783.59;;;-4.38;47.39
56074;BME280;41950;55.840;37.442;2023-02-23T11:39:20;99771.31;;;-3.88;47.64
56074;BME280;41950;55.840;37.442;2023-02-23T11:42:11;99771.16;;;-3.08;46.25
56074;BME280;41950;55.840;37.442;2023-02-23T11:44:38;99770.47;;;-2.82;44.93
56074;BME280;41950;55.840;37.442;2023-02-23T11:47:03;99765.75;;;-3.17;44.73
56074;BME280;41950;55.840;37.442;2023-02-23T11:49:32;99776.41;;;-3.03;44.54
56074;BME280;41950;55.840;37.442;2023-02-23T11:52:00;99770.69;;;-2.75;44.72
56074;BME280;41950;55.840;37.442;2023-02-23T11:54:32;99766.19;;;-2.60;42.83
56074;BME280;41950;55.840;37.442;2023-02-23T11:56:59;99761.31;;;-2.54;42.73
56074;BME280;41950;55.840;37.442;2023-02-23T11:59:32;99760.72;;;-2.23;42.87
56074;BME280;41950;55.840;37.442;2023-02-23T12:02:25;99768.19;;;-2.28;41.47
56074;BME280;41950;55.840;37.442;2023-02-23T12:05:22;99757.19;;;-2.51;42.34
56074;BME280;41950;55.840;37.442;2023-02-23T12:08:10;99751.53;;;-1.94;41.04
56074;BME280;41950;55.840;37.442;2023-02-23T12:10:40;99729.38;;;-1.98;41.12
56074;BME280;41950;55.840;37.442;2023-02-23T12:15:47;99752.78;;;-1.83;39.46
56074;BME280;41950;55.840;37.442;2023-02-23T12:18:28;99757.25;;;-2.49;40.16
56074;BME280;41950;55.840;37.442;2023-02-23T12:21:09;99752.78;;;-2.56;40.82
56074;BME280;41950;55.840;37.442;2023-02-23T12:23:40;99764.72;;;-2.30;40.31
56074;BME280;41950;55.840;37.442;2023-02-23T12:26:14;99723.69;;;-2.16;40.90
56074;BME280;41950;55.840;37.442;2023-02-23T12:28:53;99733.81;;;-1.66;39.72
56074;BME280;41950;55.840;37.442;2023-02-23T12:34:13;99753.53;;;-2.11;38.86
56074;BME280;41950;55.840;37.442;2023-02-23T12:37:15;99750.56;;;-1.98;39.86
56074;BME280;41950;55.840;37.442;2023-02-23T12:39:43;99750.19;;;-1.32;39.47
56074;BME280;41950;55.840;37.442;2023-02-23T12:44:42;99768.00;;;-1.32;39.08
56074;BME280;41950;55.840;37.442;2023-02-23T12:50:12;99762.13;;;-1.82;39.62
56074;BME280;41950;55.840;37.442;2023-02-23T12:52:50;99777.19;;;-2.13;40.39
56074;BME280;41950;55.840;37.442;2023-02-23T13:01:05;99763.09;;;-3.20;42.44
56074;BME280;41950;55.840;37.442;2023-02-23T13:09:17;99772.78;;;-5.09;47.47
56074;BME280;41950;55.840;37.442;2023-02-23T13:12:12;99774.41;;;-5.47;48.35
56074;BME280;41950;55.840;37.442;2023-02-23T13:14:45;99778.56;;;-5.65;49.16
56074;BME280;41950;55.840;37.442;2023-02-23T13:19:52;99778.53;;;-6.17;50.21
56074;BME280;41950;55.840;37.442;2023-02-23T13:22:25;99781.56;;;-6.24;50.78
56074;BME280;41950;55.840;37.442;2023-02-23T13:24:56;99775.88;;;-6.36;51.16
56074;BME280;41950;55.840;37.442;2023-02-23T13:27:47;99784.88;;;-6.41;51.55
56074;BME280;41950;55.840;37.442;2023-02-23T13:30:16;99783.31;;;-6.56;52.35
56074;BME280;41950;55.840;37.442;2023-02-23T13:32:42;99786.50;;;-6.58;52.33
56074;BME280;41950;55.840;37.442;2023-02-23T13:35:16;99782.69;;;-6.51;52.68
56074;BME280;41950;55.840;37.442;2023-02-23T13:37:53;99786.84;;;-6.52;52.83
56074;BME280;41950;55.840;37.442;2023-02-23T13:40:45;99787.56;;;-6.55;52.93
56074;BME280;41950;55.840;37.442;2023-02-23T13:43:24;99785.03;;;-6.55;53.23
56074;BME280;41950;55.840;37.442;2023-02-23T13:46:11;99784.00;;;-6.58;52.90
56074;BME280;41950;55.840;37.442;2023-02-23T13:48:56;99784.22;;;-6.70;53.46
56074;BME280;41950;55.840;37.442;2023-02-23T13:51:49;99785.94;;;-6.85;53.44
56074;BME280;41950;55.840;37.442;2023-02-23T13:54:31;99785.69;;;-6.90;54.04
56074;BME280;41950;55.840;37.442;2023-02-23T13:57:03;99770.72;;;-7.03;54.18
56074;BME280;41950;55.840;37.442;2023-02-23T13:59:42;99784.97;;;-7.03;54.42
56074;BME280;41950;55.840;37.442;2023-02-23T14:05:26;99769.53;;;-7.09;54.90
56074;BME280;41950;55.840;37.442;2023-02-23T14:08:00;99783.59;;;-7.13;55.17
56074;BME280;41950;55.840;37.442;2023-02-23T14:10:38;99779.59;;;-7.09;55.21
56074;BME280;41950;55.840;37.442;2023-02-23T14:15:45;99749.38;;;-7.24;55.43
56074;BME280;41950;55.840;37.442;2023-02-23T14:21:02;99781.59;;;-7.19;56.06
56074;BME280;41950;55.840;37.442;2023-02-23T14:23:34;99773.88;;;-7.22;56.18
56074;BME280;41950;55.840;37.442;2023-02-23T14:31:37;99743.22;;;-7.60;56.63
56074;BME280;41950;55.840;37.442;2023-02-23T14:34:08;99725.75;;;-7.72;56.93
56074;BME280;41950;55.840;37.442;2023-02-23T14:36:41;99766.31;;;-7.53;57.17
56074;BME280;41950;55.840;37.442;2023-02-23T14:39:15;99764.41;;;-7.57;57.24
56074;BME280;41950;55.840;37.442;2023-02-23T14:41:59;99765.81;;;-7.62;57.34
56074;BME280;41950;55.840;37.442;2023-02-23T14:47:06;99758.00;;;-7.66;57.54
56074;BME280;41950;55.840;37.442;2023-02-23T14:49:56;99760.50;;;-7.66;57.57